Time;durP1;ratioP1;P1;durP2;ratioP2;P2;SDS_P1;SDS_P2;PMS_P1;PMS_P2;Temp;Humidity;BMP_temperature;BMP_pressure;BME280_temperature;BME280_humidity;BME280_pressure;Samples;Min_cycle;Max_cycle;Signal;HPM_P1;HPM_P2
2024/01/17 00:00:03;;;;;;;13.25;8.27;;;;;;;;;;5051776;28;20752;-65
2024/01/17 00:02:28;;;;;;;16.27;7.93;;;;;;;;;;5051659;28;20386;-65
2024/01/17 00:04:54;;;;;;;13.43;7.70;;;;;;;;;;5052267;28;20784;-65
2024/01/17 00:07:20;;;;;;;14.70;7.95;;;;;;;;;;5051682;28;20389;-65
2024/01/17 00:09:47;;;;;;;13.73;7.87;;;;;;;;;;5051523;28;20397;-65
2024/01/17 00:12:12;;;;;;;16.00;7.97;;;;;;;;;;5033877;28;20443;-66
2024/01/17 00:14:37;;;;;;;14.33;8.03;;;;;;;;;;5033512;28;20398;-66
2024/01/17 00:17:03;;;;;;;15.37;8.40;;;;;;;;;;5051292;28;20456;-66
2024/01/17 00:19:30;;;;;;;13.23;7.70;;;;;;;;;;5051877;28;20402;-65
2024/01/17 00:21:55;;;;;;;13.68;7.68;;;;;;;;;;5051044;28;20425;-66
2024/01/17 00:24:20;;;;;;;14.90;8.20;;;;;;;;;;5033518;28;20377;-65
2024/01/17 00:26:45;;;;;;;13.00;8.10;;;;;;;;;;5051607;28;20804;-66
2024/01/17 00:29:11;;;;;;;13.30;7.43;;;;;;;;;;5050566;28;20427;-65
2024/01/17 00:31:36;;;;;;;11.33;6.80;;;;;;;;;;5033822;28;20394;-66
2024/01/17 00:34:01;;;;;;;12.43;7.10;;;;;;;;;;5051387;28;20394;-66
2024/01/17 00:36:27;;;;;;;13.33;7.47;;;;;;;;;;5051175;28;20385;-65
2024/01/17 00:38:52;;;;;;;13.43;7.20;;;;;;;;;;5051569;28;20389;-65
2024/01/17 00:41:18;;;;;;;13.10;7.47;;;;;;;;;;5051033;28;20412;-65
2024/01/17 00:43:43;;;;;;;14.05;7.25;;;;;;;;;;5050884;28;20757;-66
2024/01/17 00:46:08;;;;;;;14.20;7.20;;;;;;;;;;5050640;28;20425;-66
2024/01/17 00:48:34;;;;;;;12.90;7.23;;;;;;;;;;5050742;28;20393;-66
2024/01/17 00:50:59;;;;;;;11.20;6.70;;;;;;;;;;5050512;28;20927;-65
2024/01/17 00:53:24;;;;;;;11.50;6.90;;;;;;;;;;5050883;28;20419;-66
2024/01/17 00:55:50;;;;;;;12.60;7.10;;;;;;;;;;5051363;28;20500;-65
2024/01/17 00:58:15;;;;;;;12.20;6.97;;;;;;;;;;5050047;28;20447;-65
2024/01/17 01:00:40;;;;;;;12.53;6.80;;;;;;;;;;5051101;28;20405;-65
2024/01/17 01:03:06;;;;;;;11.50;6.67;;;;;;;;;;5050686;28;20385;-66
2024/01/17 01:05:31;;;;;;;12.15;6.53;;;;;;;;;;5050529;28;20410;-65
2024/01/17 01:07:56;;;;;;;13.47;6.93;;;;;;;;;;5051213;28;20911;-65
2024/01/17 01:10:21;;;;;;;12.50;6.70;;;;;;;;;;5032741;28;20417;-65
2024/01/17 01:12:47;;;;;;;11.53;6.40;;;;;;;;;;5050277;28;20761;-65
2024/01/17 01:15:12;;;;;;;11.55;6.93;;;;;;;;;;5050358;28;20400;-66
2024/01/17 01:17:38;;;;;;;14.03;6.60;;;;;;;;;;5051007;28;20478;-65
2024/01/17 01:20:03;;;;;;;11.23;6.50;;;;;;;;;;5030191;28;20406;-65
2024/01/17 01:22:28;;;;;;;10.40;6.50;;;;;;;;;;5030862;28;20871;-65
2024/01/17 01:24:54;;;;;;;11.23;6.37;;;;;;;;;;5030786;28;20391;-65
2024/01/17 01:27:19;;;;;;;11.87;6.33;;;;;;;;;;5030118;28;20399;-66
2024/01/17 01:29:44;;;;;;;10.15;6.03;;;;;;;;;;5050796;28;20424;-65
2024/01/17 01:32:09;;;;;;;11.63;6.27;;;;;;;;;;5049603;28;20417;-66
2024/01/17 01:34:35;;;;;;;10.93;5.93;;;;;;;;;;5051057;28;20404;-65
2024/01/17 01:37:01;;;;;;;10.35;6.18;;;;;;;;;;5050196;28;20885;-66
2024/01/17 01:39:26;;;;;;;9.80;6.00;;;;;;;;;;5050051;28;20427;-66
2024/01/17 01:41:51;;;;;;;12.75;6.30;;;;;;;;;;5050834;28;20402;-65
2024/01/17 01:44:17;;;;;;;13.20;6.40;;;;;;;;;;5049948;28;20425;-66
2024/01/17 01:46:43;;;;;;;13.27;6.17;;;;;;;;;;5049764;28;20978;-65
2024/01/17 01:49:08;;;;;;;10.77;6.45;;;;;;;;;;5032468;28;20394;-66
2024/01/17 01:51:33;;;;;;;11.37;6.40;;;;;;;;;;5050909;28;20451;-66
2024/01/17 01:53:59;;;;;;;10.30;6.10;;;;;;;;;;5032193;28;20425;-66
2024/01/17 01:56:26;;;;;;;11.88;6.13;;;;;;;;;;5049967;28;20447;-65
2024/01/17 01:58:51;;;;;;;10.40;6.22;;;;;;;;;;5050703;28;20420;-65
2024/01/17 02:01:17;;;;;;;11.90;6.45;;;;;;;;;;5053312;28;20884;-65
2024/01/17 02:03:43;;;;;;;12.63;6.60;;;;;;;;;;5036823;28;20394;-65
2024/01/17 02:06:09;;;;;;;11.13;6.57;;;;;;;;;;5053949;28;20401;-66
2024/01/17 02:08:34;;;;;;;12.95;6.90;;;;;;;;;;5053607;28;20398;-65
2024/01/17 02:11:00;;;;;;;13.38;6.85;;;;;;;;;;5054345;28;20471;-65
2024/01/17 02:13:25;;;;;;;13.50;6.37;;;;;;;;;;5054020;28;20381;-65
2024/01/17 02:15:50;;;;;;;10.37;6.03;;;;;;;;;;5053649;28;20398;-66
2024/01/17 02:18:16;;;;;;;12.52;5.97;;;;;;;;;;5053686;28;20409;-66
2024/01/17 02:20:41;;;;;;;12.27;5.90;;;;;;;;;;5036582;28;20406;-65
2024/01/17 02:23:22;;;;;;;13.50;6.50;;;;;;;;;;5053017;28;20443;-65
2024/01/17 02:25:48;;;;;;;11.65;6.57;;;;;;;;;;5036317;28;20397;-66
2024/01/17 02:28:13;;;;;;;11.38;6.50;;;;;;;;;;5052984;28;20470;-66
2024/01/17 02:30:38;;;;;;;11.97;6.37;;;;;;;;;;5054165;28;20401;-65
2024/01/17 02:33:04;;;;;;;10.80;6.27;;;;;;;;;;5053319;28;20425;-66
2024/01/17 02:35:29;;;;;;;12.25;6.15;;;;;;;;;;5053407;28;20402;-66
2024/01/17 02:37:54;;;;;;;11.07;6.23;;;;;;;;;;5035949;28;20393;-66
2024/01/17 02:40:19;;;;;;;11.80;6.57;;;;;;;;;;5053466;28;20408;-65
2024/01/17 02:42:45;;;;;;;10.93;6.10;;;;;;;;;;5052829;28;20451;-65
2024/01/17 02:45:10;;;;;;;13.67;6.40;;;;;;;;;;5053228;28;20809;-65
2024/01/17 02:47:36;;;;;;;13.13;6.20;;;;;;;;;;5053735;28;20393;-66
2024/01/17 02:50:01;;;;;;;12.60;6.70;;;;;;;;;;5052715;28;20406;-65
2024/01/17 02:52:27;;;;;;;10.70;6.43;;;;;;;;;;5053733;28;20401;-65
2024/01/17 02:54:52;;;;;;;12.25;6.88;;;;;;;;;;5053687;28;20768;-65
2024/01/17 02:57:20;;;;;;;11.80;6.10;;;;;;;;;;5052060;28;20416;-66
2024/01/17 02:59:45;;;;;;;12.73;6.80;;;;;;;;;;5036276;28;20389;-65
2024/01/17 03:02:11;;;;;;;12.73;6.50;;;;;;;;;;5052942;28;20405;-66
2024/01/17 03:04:36;;;;;;;12.23;6.60;;;;;;;;;;5052727;28;20997;-65
2024/01/17 03:07:01;;;;;;;11.03;6.20;;;;;;;;;;5052869;28;20764;-66
2024/01/17 03:09:26;;;;;;;13.57;6.73;;;;;;;;;;5053441;28;20382;-66
2024/01/17 03:11:52;;;;;;;11.57;6.23;;;;;;;;;;5051206;28;20484;-65
2024/01/17 03:14:17;;;;;;;12.10;6.40;;;;;;;;;;5052816;28;20397;-66
2024/01/17 03:16:42;;;;;;;10.73;6.10;;;;;;;;;;5053363;28;20459;-65
2024/01/17 03:19:08;;;;;;;12.53;6.13;;;;;;;;;;5051769;28;20397;-65
2024/01/17 03:21:33;;;;;;;10.63;6.30;;;;;;;;;;5053179;28;20412;-65
2024/01/17 03:24:00;;;;;;;13.70;7.10;;;;;;;;;;5053156;28;20386;-66
2024/01/17 03:26:25;;;;;;;12.50;6.47;;;;;;;;;;5051821;28;20457;-65
2024/01/17 03:28:51;;;;;;;12.80;6.20;;;;;;;;;;5052936;28;20429;-66
2024/01/17 03:31:16;;;;;;;12.57;6.50;;;;;;;;;;5052622;28;20483;-66
2024/01/17 03:33:41;;;;;;;11.13;6.03;;;;;;;;;;5052254;28;20409;-65
2024/01/17 03:36:07;;;;;;;10.87;6.47;;;;;;;;;;5052586;28;20803;-65
2024/01/17 03:38:32;;;;;;;11.60;6.57;;;;;;;;;;5052589;28;20397;-66
2024/01/17 03:41:00;;;;;;;11.13;5.77;;;;;;;;;;5052359;28;20400;-66
2024/01/17 03:43:25;;;;;;;11.23;5.68;;;;;;;;;;5052276;28;20903;-66
2024/01/17 03:45:53;;;;;;;11.30;6.33;;;;;;;;;;5051866;28;20401;-66
2024/01/17 03:48:18;;;;;;;11.80;6.22;;;;;;;;;;5051899;28;20416;-66
2024/01/17 03:50:44;;;;;;;11.75;5.70;;;;;;;;;;5052830;28;20397;-65
2024/01/17 03:53:09;;;;;;;12.67;6.60;;;;;;;;;;5051425;28;20390;-65
2024/01/17 03:55:34;;;;;;;10.50;5.83;;;;;;;;;;5052677;28;20467;-66
2024/01/17 03:58:00;;;;;;;11.10;6.20;;;;;;;;;;5052452;28;20393;-65
2024/01/17 04:00:25;;;;;;;12.77;6.30;;;;;;;;;;5051372;28;20406;-66
2024/01/17 04:02:50;;;;;;;12.10;6.37;;;;;;;;;;5052304;28;20401;-66
2024/01/17 04:05:18;;;;;;;12.13;6.73;;;;;;;;;;5051917;28;20428;-66
2024/01/17 04:07:43;;;;;;;12.90;6.55;;;;;;;;;;5051408;28;20509;-66
2024/01/17 04:10:09;;;;;;;10.90;6.37;;;;;;;;;;5051855;28;20484;-66
2024/01/17 04:12:35;;;;;;;11.50;6.67;;;;;;;;;;5052100;28;20402;-65
2024/01/17 04:15:00;;;;;;;12.45;6.43;;;;;;;;;;5051482;28;20400;-65
2024/01/17 04:17:25;;;;;;;12.10;6.80;;;;;;;;;;5051653;28;20397;-66
2024/01/17 04:19:50;;;;;;;13.23;6.77;;;;;;;;;;5052020;28;20400;-65
2024/01/17 04:22:16;;;;;;;12.50;6.63;;;;;;;;;;5050552;28;20409;-65
2024/01/17 04:24:41;;;;;;;11.43;6.70;;;;;;;;;;5051790;28;20413;-66
2024/01/17 04:27:07;;;;;;;12.83;6.77;;;;;;;;;;5039963;28;20497;-65
2024/01/17 04:29:34;;;;;;;10.65;6.53;;;;;;;;;;5035712;28;21232;-65
2024/01/17 04:32:00;;;;;;;10.07;6.23;;;;;;;;;;5031482;28;20482;-65
2024/01/17 04:34:25;;;;;;;11.77;6.25;;;;;;;;;;5022530;28;20752;-65
2024/01/17 04:36:50;;;;;;;11.13;6.43;;;;;;;;;;5022600;28;20419;-65
2024/01/17 04:39:16;;;;;;;10.63;6.40;;;;;;;;;;5013335;28;20399;-65
2024/01/17 04:41:42;;;;;;;11.88;6.72;;;;;;;;;;5013712;28;20402;-66
2024/01/17 04:44:07;;;;;;;10.93;6.85;;;;;;;;;;5031621;28;20407;-65
2024/01/17 04:46:34;;;;;;;10.93;6.50;;;;;;;;;;5020467;28;20434;-65
2024/01/17 04:49:00;;;;;;;13.52;6.70;;;;;;;;;;5020160;28;20419;-65
2024/01/17 04:51:26;;;;;;;12.52;7.00;;;;;;;;;;5035275;28;20433;-65
2024/01/17 04:53:51;;;;;;;9.80;6.33;;;;;;;;;;5021367;28;20395;-65
2024/01/17 04:56:16;;;;;;;15.57;7.10;;;;;;;;;;5020676;28;20433;-65
2024/01/17 04:58:43;;;;;;;10.77;6.77;;;;;;;;;;5034894;28;20411;-65
2024/01/17 05:01:08;;;;;;;10.68;6.65;;;;;;;;;;5027044;28;20422;-65
2024/01/17 05:03:34;;;;;;;11.87;6.77;;;;;;;;;;5017130;28;20398;-65
2024/01/17 05:05:59;;;;;;;11.73;6.13;;;;;;;;;;5015139;28;20399;-66
2024/01/17 05:08:24;;;;;;;11.97;6.77;;;;;;;;;;5020785;28;20856;-65
2024/01/17 05:10:50;;;;;;;12.13;6.80;;;;;;;;;;5020567;28;20428;-65
2024/01/17 05:13:15;;;;;;;10.05;6.10;;;;;;;;;;5020800;28;20407;-65
2024/01/17 05:15:40;;;;;;;10.50;6.73;;;;;;;;;;5021107;28;20408;-65
2024/01/17 05:18:06;;;;;;;12.00;7.20;;;;;;;;;;5020018;28;20442;-65
2024/01/17 05:20:31;;;;;;;12.10;6.85;;;;;;;;;;5020986;28;20605;-65
2024/01/17 05:22:57;;;;;;;12.37;7.20;;;;;;;;;;5029719;28;20723;-65
2024/01/17 05:25:22;;;;;;;11.80;6.80;;;;;;;;;;5011586;28;20399;-65
2024/01/17 05:27:51;;;;;;;11.10;6.60;;;;;;;;;;5013220;28;20404;-65
2024/01/17 05:30:17;;;;;;;10.52;6.63;;;;;;;;;;5039426;28;20436;-65
2024/01/17 05:32:43;;;;;;;11.63;6.80;;;;;;;;;;5039491;28;20405;-65
2024/01/17 05:35:08;;;;;;;11.37;6.50;;;;;;;;;;5036774;28;20835;-65
2024/01/17 05:37:34;;;;;;;12.40;6.63;;;;;;;;;;5020927;28;20576;-65
2024/01/17 05:39:59;;;;;;;12.13;6.93;;;;;;;;;;5035447;28;20498;-65
2024/01/17 05:42:24;;;;;;;11.43;6.60;;;;;;;;;;5039526;28;21083;-66
2024/01/17 05:44:50;;;;;;;10.37;6.67;;;;;;;;;;5027081;28;20904;-65
2024/01/17 05:47:15;;;;;;;11.80;6.47;;;;;;;;;;5011844;28;20415;-65
2024/01/17 05:49:40;;;;;;;11.68;6.93;;;;;;;;;;5012561;28;20399;-65
2024/01/17 05:52:05;;;;;;;11.97;7.10;;;;;;;;;;5017110;28;20402;-65
2024/01/17 05:54:31;;;;;;;11.87;6.20;;;;;;;;;;5035162;28;20755;-65
2024/01/17 05:56:56;;;;;;;11.37;6.70;;;;;;;;;;5021073;28;20491;-65
2024/01/17 05:59:21;;;;;;;11.30;6.63;;;;;;;;;;5019347;28;20404;-65
2024/01/17 06:01:47;;;;;;;11.20;6.90;;;;;;;;;;5021242;28;20402;-65
2024/01/17 06:04:12;;;;;;;11.93;7.43;;;;;;;;;;5019729;28;20487;-65
2024/01/17 06:06:38;;;;;;;13.07;7.00;;;;;;;;;;5018103;28;20986;-65
2024/01/17 06:09:05;;;;;;;11.23;7.00;;;;;;;;;;5012059;28;20406;-65
2024/01/17 06:11:30;;;;;;;12.23;7.40;;;;;;;;;;5031868;28;20393;-65
2024/01/17 06:13:56;;;;;;;13.02;7.80;;;;;;;;;;5022433;28;20395;-65
2024/01/17 06:16:21;;;;;;;10.77;6.83;;;;;;;;;;5019935;28;20407;-65
2024/01/17 06:18:46;;;;;;;11.20;7.20;;;;;;;;;;5020719;28;20410;-65
2024/01/17 06:21:11;;;;;;;12.43;8.10;;;;;;;;;;5019315;28;20549;-65
2024/01/17 06:23:38;;;;;;;11.17;7.73;;;;;;;;;;5020532;28;20890;-65
2024/01/17 06:26:03;;;;;;;12.75;7.50;;;;;;;;;;5035352;28;20445;-66
2024/01/17 06:28:28;;;;;;;12.02;7.32;;;;;;;;;;5019994;28;20414;-65
2024/01/17 06:30:54;;;;;;;11.67;7.83;;;;;;;;;;5013746;28;20380;-65
2024/01/17 06:33:19;;;;;;;13.87;7.63;;;;;;;;;;5012128;28;20403;-65
2024/01/17 06:35:47;;;;;;;12.70;7.13;;;;;;;;;;5011937;28;21161;-65
2024/01/17 06:38:12;;;;;;;11.40;6.70;;;;;;;;;;5037846;28;20760;-65
2024/01/17 06:40:38;;;;;;;12.40;7.13;;;;;;;;;;5040163;28;20416;-65
2024/01/17 06:43:03;;;;;;;10.47;6.90;;;;;;;;;;5038612;28;20401;-66
2024/01/17 06:45:28;;;;;;;12.10;7.07;;;;;;;;;;5032188;28;20416;-65
2024/01/17 06:47:54;;;;;;;11.20;6.77;;;;;;;;;;5043319;28;20390;-65
2024/01/17 06:50:19;;;;;;;10.30;6.47;;;;;;;;;;5042054;28;20438;-65
2024/01/17 06:52:44;;;;;;;11.27;6.67;;;;;;;;;;5039506;28;20873;-65
2024/01/17 06:55:10;;;;;;;11.67;6.80;;;;;;;;;;5038388;28;20746;-65
2024/01/17 06:57:35;;;;;;;10.27;6.70;;;;;;;;;;5052225;28;20398;-64
2024/01/17 07:00:01;;;;;;;12.63;6.83;;;;;;;;;;5053080;28;20418;-64
2024/01/17 07:02:26;;;;;;;12.82;7.22;;;;;;;;;;5053448;28;20404;-64
2024/01/17 07:04:51;;;;;;;12.40;8.43;;;;;;;;;;5052090;28;20445;-64
2024/01/17 07:07:17;;;;;;;12.25;7.10;;;;;;;;;;5051480;28;20405;-65
2024/01/17 07:09:43;;;;;;;11.23;6.93;;;;;;;;;;5051700;28;20406;-64
2024/01/17 07:12:08;;;;;;;12.00;7.80;;;;;;;;;;5052605;28;20814;-64
2024/01/17 07:14:33;;;;;;;11.40;7.00;;;;;;;;;;5052527;28;20488;-65
2024/01/17 07:16:58;;;;;;;11.57;6.80;;;;;;;;;;5051392;28;20424;-64
2024/01/17 07:19:24;;;;;;;10.32;6.18;;;;;;;;;;5052286;28;20414;-64
2024/01/17 07:21:49;;;;;;;12.40;6.80;;;;;;;;;;5051903;28;20412;-64
2024/01/17 07:24:14;;;;;;;11.83;6.57;;;;;;;;;;5051464;28;20401;-64
2024/01/17 07:26:40;;;;;;;10.52;6.80;;;;;;;;;;5052774;28;20439;-64
2024/01/17 07:29:05;;;;;;;10.30;6.60;;;;;;;;;;5052193;28;20405;-64
2024/01/17 07:31:31;;;;;;;11.30;7.13;;;;;;;;;;5051907;28;20894;-63
2024/01/17 07:33:56;;;;;;;11.85;7.30;;;;;;;;;;5052547;28;20421;-63
2024/01/17 07:36:21;;;;;;;11.50;6.93;;;;;;;;;;5051170;28;20940;-64
2024/01/17 07:38:48;;;;;;;11.60;7.13;;;;;;;;;;5051819;28;20397;-64
2024/01/17 07:41:13;;;;;;;11.82;6.80;;;;;;;;;;5051758;28;20394;-65
2024/01/17 07:43:38;;;;;;;10.93;6.77;;;;;;;;;;5052102;28;20923;-66
2024/01/17 07:46:04;;;;;;;12.05;6.70;;;;;;;;;;5051107;28;20416;-65
2024/01/17 07:48:31;;;;;;;12.98;6.70;;;;;;;;;;5051982;28;20811;-65
2024/01/17 07:50:56;;;;;;;12.33;7.33;;;;;;;;;;5051972;28;20405;-65
2024/01/17 07:53:21;;;;;;;12.03;6.50;;;;;;;;;;5050896;28;20374;-65
2024/01/17 07:55:47;;;;;;;12.80;6.78;;;;;;;;;;5050704;28;20408;-64
2024/01/17 07:58:12;;;;;;;11.57;7.00;;;;;;;;;;5051097;28;20761;-65
2024/01/17 08:00:38;;;;;;;11.77;7.03;;;;;;;;;;5051001;28;20749;-65
2024/01/17 08:03:04;;;;;;;12.27;7.03;;;;;;;;;;5051506;28;20487;-65
2024/01/17 08:05:30;;;;;;;10.40;6.50;;;;;;;;;;5051458;28;20409;-65
2024/01/17 08:07:55;;;;;;;11.13;6.82;;;;;;;;;;5050307;28;20397;-65
2024/01/17 08:10:21;;;;;;;13.10;7.70;;;;;;;;;;5051303;28;20389;-63
2024/01/17 08:12:46;;;;;;;13.23;7.28;;;;;;;;;;5051690;28;20394;-63
2024/01/17 08:15:11;;;;;;;14.20;7.23;;;;;;;;;;5050520;28;20437;-65
2024/01/17 08:17:37;;;;;;;11.63;7.03;;;;;;;;;;5051659;28;20405;-65
2024/01/17 08:20:03;;;;;;;12.38;6.97;;;;;;;;;;5050385;28;20472;-65
2024/01/17 08:22:28;;;;;;;11.77;7.13;;;;;;;;;;5050715;28;20816;-64
2024/01/17 08:24:54;;;;;;;10.80;7.07;;;;;;;;;;5033639;28;20424;-65
2024/01/17 08:27:19;;;;;;;14.07;7.40;;;;;;;;;;5049930;28;20414;-64
2024/01/17 08:29:46;;;;;;;10.83;7.33;;;;;;;;;;5051540;28;20429;-64
2024/01/17 08:32:11;;;;;;;11.18;7.35;;;;;;;;;;5050761;28;20385;-64
2024/01/17 08:34:36;;;;;;;10.93;7.03;;;;;;;;;;5050533;28;20451;-64
2024/01/17 08:37:02;;;;;;;12.47;7.50;;;;;;;;;;5050553;28;20432;-66
2024/01/17 08:39:27;;;;;;;14.07;7.13;;;;;;;;;;5051191;28;20382;-65
2024/01/17 08:41:53;;;;;;;11.93;7.83;;;;;;;;;;5050848;28;20901;-64
2024/01/17 08:44:19;;;;;;;14.43;7.43;;;;;;;;;;5050576;28;20398;-64
2024/01/17 08:46:45;;;;;;;13.00;7.10;;;;;;;;;;5051107;28;20764;-63
2024/01/17 08:49:10;;;;;;;12.13;7.80;;;;;;;;;;5049289;28;20499;-65
2024/01/17 08:51:36;;;;;;;13.50;7.70;;;;;;;;;;5051367;28;20435;-63
2024/01/17 08:54:02;;;;;;;12.45;7.57;;;;;;;;;;5050147;28;20527;-64
2024/01/17 08:56:27;;;;;;;13.60;7.57;;;;;;;;;;5050489;28;20480;-64
2024/01/17 08:58:52;;;;;;;12.75;7.53;;;;;;;;;;5051291;28;20734;-64
2024/01/17 09:01:17;;;;;;;13.90;7.43;;;;;;;;;;5050987;28;20405;-64
2024/01/17 09:03:43;;;;;;;13.53;7.80;;;;;;;;;;5050393;28;20401;-64
2024/01/17 09:06:08;;;;;;;14.02;8.43;;;;;;;;;;5050711;28;20526;-66
2024/01/17 09:08:34;;;;;;;13.23;8.53;;;;;;;;;;5050148;28;20386;-67
2024/01/17 09:10:59;;;;;;;11.87;7.80;;;;;;;;;;5050242;28;20389;-67
2024/01/17 09:13:24;;;;;;;14.10;8.00;;;;;;;;;;5050645;28;20940;-66
2024/01/17 09:15:50;;;;;;;13.07;7.90;;;;;;;;;;5051219;28;20397;-67
2024/01/17 09:18:17;;;;;;;13.20;8.30;;;;;;;;;;5049679;28;20405;-64
2024/01/17 09:20:43;;;;;;;12.50;7.97;;;;;;;;;;5050985;28;20433;-67
2024/01/17 09:23:08;;;;;;;13.68;8.55;;;;;;;;;;5049864;28;20444;-66
2024/01/17 09:25:34;;;;;;;13.53;8.63;;;;;;;;;;5050099;28;20393;-65
2024/01/17 09:27:59;;;;;;;13.43;8.50;;;;;;;;;;5050355;28;20488;-65
2024/01/17 09:30:24;;;;;;;14.33;8.37;;;;;;;;;;5049701;28;20393;-65
2024/01/17 09:32:49;;;;;;;12.97;8.43;;;;;;;;;;5050731;28;20390;-65
2024/01/17 09:35:15;;;;;;;12.30;7.80;;;;;;;;;;5050301;28;20397;-65
2024/01/17 09:37:41;;;;;;;14.95;8.52;;;;;;;;;;5049941;28;20459;-65
2024/01/17 09:40:06;;;;;;;12.17;8.00;;;;;;;;;;5050096;28;20455;-65
2024/01/17 09:42:32;;;;;;;12.40;8.13;;;;;;;;;;5050965;28;20749;-65
2024/01/17 09:44:57;;;;;;;13.23;8.37;;;;;;;;;;5049721;28;20401;-65
2024/01/17 09:47:23;;;;;;;13.73;8.27;;;;;;;;;;5032455;28;20424;-65
2024/01/17 09:49:48;;;;;;;13.23;8.57;;;;;;;;;;5016104;28;20484;-65
2024/01/17 09:52:13;;;;;;;13.33;8.60;;;;;;;;;;5049640;28;20390;-65
2024/01/17 09:54:42;;;;;;;14.63;8.73;;;;;;;;;;5032529;28;20397;-65
2024/01/17 09:57:07;;;;;;;13.60;8.40;;;;;;;;;;5050112;28;20882;-65
2024/01/17 09:59:33;;;;;;;13.60;8.50;;;;;;;;;;5032127;28;20959;-65
2024/01/17 10:01:58;;;;;;;17.53;8.50;;;;;;;;;;5050542;28;20897;-65
2024/01/17 10:04:24;;;;;;;13.23;8.43;;;;;;;;;;5049669;28;20393;-65
2024/01/17 10:06:50;;;;;;;13.60;9.05;;;;;;;;;;5049652;28;20496;-65
2024/01/17 10:09:15;;;;;;;17.00;9.00;;;;;;;;;;5049699;28;20393;-65
2024/01/17 10:11:41;;;;;;;13.82;8.75;;;;;;;;;;5050576;28;20394;-65
2024/01/17 10:14:07;;;;;;;14.40;9.30;;;;;;;;;;5049437;28;20532;-65
2024/01/17 10:16:33;;;;;;;13.83;8.87;;;;;;;;;;5032918;28;20442;-65
2024/01/17 10:18:59;;;;;;;13.97;8.93;;;;;;;;;;5050323;28;20480;-65
2024/01/17 10:21:25;;;;;;;14.48;9.15;;;;;;;;;;5034034;28;20389;-65
2024/01/17 10:23:50;;;;;;;13.67;8.60;;;;;;;;;;5054053;28;20397;-65
2024/01/17 10:26:15;;;;;;;13.93;9.00;;;;;;;;;;5053742;28;20495;-66
2024/01/17 10:28:41;;;;;;;14.17;8.73;;;;;;;;;;5053369;28;20485;-65
2024/01/17 10:31:06;;;;;;;13.83;9.13;;;;;;;;;;5035912;28;20398;-65
2024/01/17 10:33:32;;;;;;;13.47;8.77;;;;;;;;;;5036092;28;20377;-65
2024/01/17 10:35:58;;;;;;;14.27;8.70;;;;;;;;;;5053793;28;20398;-65
2024/01/17 10:38:23;;;;;;;13.15;8.32;;;;;;;;;;5053700;28;20397;-65
2024/01/17 10:41:01;;;;;;;15.97;8.80;;;;;;;;;;5052962;28;20433;-65
2024/01/17 10:43:27;;;;;;;14.07;8.10;;;;;;;;;;5053431;28;20437;-65
2024/01/17 10:45:55;;;;;;;13.77;8.33;;;;;;;;;;5053458;28;20833;-65
2024/01/17 10:48:22;;;;;;;14.75;9.15;;;;;;;;;;5035318;28;20480;-65
2024/01/17 10:50:47;;;;;;;12.23;8.40;;;;;;;;;;5053700;28;20405;-65
2024/01/17 10:53:15;;;;;;;13.23;8.32;;;;;;;;;;5053394;28;20404;-65
2024/01/17 10:55:44;;;;;;;13.68;8.38;;;;;;;;;;5034807;28;20444;-64
2024/01/17 10:58:09;;;;;;;12.63;8.38;;;;;;;;;;5035983;28;20409;-64
2024/01/17 11:00:37;;;;;;;14.00;8.27;;;;;;;;;;5053384;28;20896;-64
2024/01/17 11:03:08;;;;;;;12.63;8.50;;;;;;;;;;5052404;28;20421;-64
2024/01/17 11:05:33;;;;;;;12.73;8.60;;;;;;;;;;5053457;28;20447;-64
2024/01/17 11:07:59;;;;;;;14.33;8.67;;;;;;;;;;5053301;28;20389;-64
2024/01/17 11:10:25;;;;;;;13.40;8.20;;;;;;;;;;5047771;28;20401;-65
2024/01/17 11:12:50;;;;;;;12.10;8.43;;;;;;;;;;5053330;28;20405;-64
2024/01/17 11:15:16;;;;;;;15.00;8.70;;;;;;;;;;5052680;28;20401;-65
2024/01/17 11:17:45;;;;;;;13.40;8.90;;;;;;;;;;5052546;28;20398;-65
2024/01/17 11:20:11;;;;;;;13.40;8.63;;;;;;;;;;5035223;28;20908;-66
2024/01/17 11:22:37;;;;;;;12.50;8.40;;;;;;;;;;5035779;28;20410;-65
2024/01/17 11:25:04;;;;;;;12.17;8.20;;;;;;;;;;5051854;28;20447;-65
2024/01/17 11:27:30;;;;;;;13.60;8.35;;;;;;;;;;5052993;28;20398;-63
2024/01/17 11:29:59;;;;;;;13.63;9.00;;;;;;;;;;5050592;28;20540;-64
2024/01/17 11:32:38;;;;;;;12.60;8.60;;;;;;;;;;5051928;28;20399;-63
2024/01/17 11:35:04;;;;;;;13.80;8.68;;;;;;;;;;5051509;28;20433;-63
2024/01/17 11:37:30;;;;;;;14.82;8.45;;;;;;;;;;5052454;28;20425;-62
2024/01/17 11:39:56;;;;;;;11.82;8.23;;;;;;;;;;5052537;28;20401;-62
2024/01/17 11:42:21;;;;;;;15.20;9.23;;;;;;;;;;5051905;28;20421;-62
2024/01/17 11:44:46;;;;;;;12.50;8.50;;;;;;;;;;5033683;28;20864;-62
2024/01/17 11:47:12;;;;;;;15.27;9.07;;;;;;;;;;5052279;28;20418;-62
2024/01/17 11:49:39;;;;;;;14.30;9.00;;;;;;;;;;5034881;28;20396;-62
2024/01/17 11:52:09;;;;;;;14.05;9.18;;;;;;;;;;5051360;28;20426;-62
2024/01/17 11:54:37;;;;;;;16.10;9.23;;;;;;;;;;5052591;28;20439;-62
2024/01/17 11:57:03;;;;;;;14.45;9.40;;;;;;;;;;5051644;28;20885;-62
2024/01/17 11:59:28;;;;;;;14.43;8.60;;;;;;;;;;5044621;28;20404;-62
2024/01/17 12:01:55;;;;;;;14.47;9.30;;;;;;;;;;5052421;28;20393;-62
2024/01/17 12:04:20;;;;;;;14.83;9.00;;;;;;;;;;5051896;28;20439;-62
2024/01/17 12:06:49;;;;;;;15.83;9.50;;;;;;;;;;5051293;28;20414;-62
2024/01/17 12:09:17;;;;;;;13.20;8.70;;;;;;;;;;5051724;28;20468;-62
2024/01/17 12:11:43;;;;;;;15.75;8.88;;;;;;;;;;5051832;28;20455;-62
2024/01/17 12:14:08;;;;;;;13.48;8.55;;;;;;;;;;5060900;28;20391;-62
2024/01/17 12:16:34;;;;;;;15.40;9.10;;;;;;;;;;5072214;28;20400;-62
2024/01/17 12:18:59;;;;;;;14.60;8.80;;;;;;;;;;5053439;28;20400;-62
2024/01/17 12:21:25;;;;;;;13.63;9.20;;;;;;;;;;5046592;28;20401;-62
2024/01/17 12:23:50;;;;;;;13.90;8.60;;;;;;;;;;5051718;28;20402;-62
2024/01/17 12:26:16;;;;;;;13.88;8.82;;;;;;;;;;5050488;28;20439;-62
2024/01/17 12:28:42;;;;;;;14.30;9.17;;;;;;;;;;5051740;28;20804;-62
2024/01/17 12:31:07;;;;;;;14.75;9.25;;;;;;;;;;5051018;28;20401;-62
2024/01/17 12:33:33;;;;;;;13.20;9.00;;;;;;;;;;5051127;28;20397;-62
2024/01/17 12:36:00;;;;;;;13.93;9.53;;;;;;;;;;5051547;28;20405;-62
2024/01/17 12:38:25;;;;;;;14.77;9.32;;;;;;;;;;5051087;28;20405;-62
2024/01/17 12:40:50;;;;;;;13.65;9.20;;;;;;;;;;5051045;28;20738;-62
2024/01/17 12:43:17;;;;;;;14.37;9.53;;;;;;;;;;5050846;28;20893;-62
2024/01/17 12:45:43;;;;;;;14.90;9.43;;;;;;;;;;5051014;28;20680;-62
2024/01/17 12:48:09;;;;;;;15.40;9.43;;;;;;;;;;5050013;28;20884;-62
2024/01/17 12:50:35;;;;;;;17.30;9.85;;;;;;;;;;5051281;28;20753;-62
2024/01/17 12:53:00;;;;;;;16.00;11.17;;;;;;;;;;5051502;28;20408;-62
2024/01/17 12:55:25;;;;;;;12.75;9.55;;;;;;;;;;5050252;28;20393;-62
2024/01/17 12:57:51;;;;;;;15.53;9.67;;;;;;;;;;5051044;28;20377;-62
2024/01/17 13:00:20;;;;;;;15.43;10.00;;;;;;;;;;5050387;28;20404;-62
2024/01/17 13:02:45;;;;;;;16.40;10.07;;;;;;;;;;5050543;28;20400;-62
2024/01/17 13:05:11;;;;;;;16.02;10.25;;;;;;;;;;5050714;28;20476;-62
2024/01/17 13:07:39;;;;;;;18.13;10.70;;;;;;;;;;5050951;28;20421;-62
2024/01/17 13:10:14;;;;;;;16.87;10.50;;;;;;;;;;5049928;28;20420;-62
2024/01/17 13:12:39;;;;;;;20.00;13.45;;;;;;;;;;5050999;28;20393;-62
2024/01/17 13:15:07;;;;;;;16.80;10.27;;;;;;;;;;5050257;28;20416;-62
2024/01/17 13:17:32;;;;;;;15.77;10.50;;;;;;;;;;5050320;28;20397;-62
2024/01/17 13:19:58;;;;;;;15.60;10.10;;;;;;;;;;5033239;28;20492;-62
2024/01/17 13:22:23;;;;;;;16.93;10.93;;;;;;;;;;5049409;28;20401;-62
2024/01/17 13:24:49;;;;;;;14.23;9.53;;;;;;;;;;5051005;28;20472;-62
2024/01/17 13:27:14;;;;;;;15.98;9.95;;;;;;;;;;5050297;28;20409;-62
2024/01/17 13:29:39;;;;;;;16.83;10.33;;;;;;;;;;5049628;28;20400;-62
2024/01/17 13:32:05;;;;;;;17.60;9.95;;;;;;;;;;5050398;28;20405;-62
2024/01/17 13:34:30;;;;;;;15.23;9.50;;;;;;;;;;5050868;28;20401;-62
2024/01/17 13:36:56;;;;;;;15.67;10.37;;;;;;;;;;5049906;28;20769;-62
2024/01/17 13:39:26;;;;;;;17.03;9.90;;;;;;;;;;5050327;28;20390;-62
2024/01/17 13:41:51;;;;;;;14.07;9.30;;;;;;;;;;5050885;28;20398;-62
2024/01/17 13:44:20;;;;;;;14.25;8.90;;;;;;;;;;5048930;28;20470;-62
2024/01/17 13:46:46;;;;;;;18.17;10.83;;;;;;;;;;5050570;28;20443;-62
2024/01/17 13:49:11;;;;;;;14.00;9.10;;;;;;;;;;5050070;28;20405;-62
2024/01/17 13:51:43;;;;;;;13.63;9.57;;;;;;;;;;5049534;28;21118;-62
2024/01/17 13:54:14;;;;;;;14.35;9.13;;;;;;;;;;5049761;28;20389;-62
2024/01/17 13:56:40;;;;;;;14.82;7.85;;;;;;;;;;5051296;28;20393;-62
2024/01/17 13:59:05;;;;;;;16.13;10.00;;;;;;;;;;5053147;28;20400;-63
2024/01/17 14:01:31;;;;;;;14.52;8.68;;;;;;;;;;5054449;28;20835;-62
2024/01/17 14:03:56;;;;;;;16.03;9.83;;;;;;;;;;5054481;28;20933;-62
2024/01/17 14:06:22;;;;;;;14.00;9.20;;;;;;;;;;5053240;28;20424;-62
2024/01/17 14:08:47;;;;;;;14.35;8.35;;;;;;;;;;5054475;28;20529;-65
2024/01/17 14:11:12;;;;;;;9.50;5.20;;;;;;;;;;5054108;28;20397;-62
2024/01/17 14:13:38;;;;;;;14.60;9.27;;;;;;;;;;5053084;28;20401;-62
2024/01/17 14:16:04;;;;;;;14.17;9.30;;;;;;;;;;5052026;28;20399;-62
2024/01/17 14:18:29;;;;;;;15.43;9.30;;;;;;;;;;5053833;28;20500;-62